createdAt,value
2018-10-05T00:01:16.041Z,5.73
2018-10-05T00:03:43.219Z,5.33
2018-10-05T00:06:10.405Z,5.50
2018-10-05T00:08:37.639Z,6.17
2018-10-05T00:11:04.974Z,6.10
2018-10-05T00:13:32.122Z,5.90
2018-10-05T00:15:59.343Z,5.77
2018-10-05T00:18:26.531Z,6.40
2018-10-05T00:20:53.897Z,6.13
2018-10-05T00:23:21.138Z,5.53
2018-10-05T00:25:48.301Z,5.87
2018-10-05T00:28:16.494Z,5.80
2018-10-05T00:30:43.654Z,5.70
2018-10-05T00:33:10.860Z,6.07
2018-10-05T00:35:38.066Z,6.20
2018-10-05T00:38:05.446Z,5.80
2018-10-05T00:40:32.639Z,6.43
2018-10-05T00:42:59.883Z,5.53
2018-10-05T00:45:27.086Z,5.73
2018-10-05T00:47:54.374Z,5.80
2018-10-05T00:50:21.478Z,5.80
2018-10-05T00:52:48.635Z,5.30
2018-10-05T00:55:15.801Z,5.27
2018-10-05T00:57:42.991Z,4.93
2018-10-05T01:00:10.288Z,5.30
2018-10-05T01:02:37.538Z,5.17
2018-10-05T01:05:07.108Z,5.17
2018-10-05T01:07:34.296Z,5.63
2018-10-05T01:10:01.569Z,5.43
2018-10-05T01:12:28.778Z,4.87
2018-10-05T01:14:55.967Z,5.50
2018-10-05T01:17:23.197Z,4.97
2018-10-05T01:19:50.386Z,5.30
2018-10-05T01:22:17.633Z,5.50
2018-10-05T01:24:44.974Z,5.60
2018-10-05T01:27:11.993Z,4.90
2018-10-05T01:29:39.235Z,5.70
2018-10-05T01:32:06.489Z,5.70
2018-10-05T01:34:33.694Z,5.30
2018-10-05T01:37:00.875Z,4.90
2018-10-05T01:39:28.082Z,4.90
2018-10-05T01:41:55.270Z,6.00
2018-10-05T01:44:22.412Z,5.43
2018-10-05T01:46:49.610Z,5.30
2018-10-05T01:49:16.768Z,5.40
2018-10-05T01:51:43.935Z,5.30
2018-10-05T01:54:11.174Z,5.30
2018-10-05T01:56:38.310Z,5.60
2018-10-05T01:59:05.482Z,5.20
2018-10-05T02:01:33.018Z,5.10
2018-10-05T02:04:00.477Z,5.27
2018-10-05T02:06:27.727Z,5.00
2018-10-05T02:08:54.916Z,5.43
2018-10-05T02:11:22.190Z,5.30
2018-10-05T02:13:49.561Z,4.87
2018-10-05T02:16:16.738Z,5.43
2018-10-05T02:18:43.957Z,5.63
2018-10-05T02:21:11.120Z,5.20
2018-10-05T02:23:38.337Z,5.60
2018-10-05T02:26:05.614Z,5.60
2018-10-05T02:28:32.811Z,4.83
2018-10-05T02:31:00.111Z,4.73
2018-10-05T02:33:27.365Z,5.17
2018-10-05T02:35:54.524Z,5.40
2018-10-05T02:38:21.662Z,5.13
2018-10-05T02:40:49.207Z,5.20
2018-10-05T02:43:16.392Z,5.67
2018-10-05T02:45:43.527Z,4.47
2018-10-05T02:48:10.691Z,5.57
2018-10-05T02:50:37.833Z,5.27
2018-10-05T02:53:05.094Z,4.83
2018-10-05T02:55:32.333Z,4.70
2018-10-05T02:58:00.278Z,5.50
2018-10-05T03:00:39.038Z,5.20
2018-10-05T03:03:06.766Z,5.60
2018-10-05T03:05:33.870Z,5.50
2018-10-05T03:08:01.073Z,5.13
2018-10-05T03:10:28.270Z,5.47
2018-10-05T03:12:55.489Z,5.27
2018-10-05T03:15:22.642Z,5.13
2018-10-05T03:17:49.874Z,5.10
2018-10-05T03:20:17.009Z,5.63
2018-10-05T03:22:44.210Z,5.43
2018-10-05T03:25:11.635Z,6.43
2018-10-05T03:27:38.854Z,5.73
2018-10-05T03:30:06.068Z,5.37
2018-10-05T03:32:33.275Z,5.90
2018-10-05T03:35:00.455Z,5.23
2018-10-05T03:37:27.839Z,4.90
2018-10-05T03:39:55.046Z,5.20
2018-10-05T03:42:22.193Z,5.50
2018-10-05T03:44:49.378Z,5.10
2018-10-05T03:47:16.542Z,4.70
2018-10-05T03:49:43.765Z,6.03
2018-10-05T03:52:10.936Z,5.37
2018-10-05T03:54:38.772Z,5.33
2018-10-05T03:57:06.984Z,5.13
2018-10-05T03:59:34.225Z,5.00
2018-10-05T04:02:01.382Z,4.57
2018-10-05T04:04:28.546Z,5.57
2018-10-05T04:06:55.792Z,5.60
2018-10-05T04:09:23.101Z,4.83
2018-10-05T04:11:50.388Z,4.90
2018-10-05T04:14:17.704Z,5.30
2018-10-05T04:16:44.892Z,5.67
2018-10-05T04:19:12.064Z,5.50
2018-10-05T04:21:39.295Z,5.20
2018-10-05T04:24:06.579Z,5.40
2018-10-05T04:26:34.606Z,5.30
2018-10-05T04:29:01.793Z,5.80
2018-10-05T04:31:28.971Z,4.90
2018-10-05T04:33:56.169Z,5.50
2018-10-05T04:36:23.364Z,5.53
2018-10-05T04:38:50.580Z,5.37
2018-10-05T04:41:17.901Z,5.40
2018-10-05T04:43:45.023Z,5.30
2018-10-05T04:46:12.217Z,5.70
2018-10-05T04:48:39.373Z,5.47
2018-10-05T04:51:07.151Z,6.13
2018-10-05T04:53:34.364Z,5.53
2018-10-05T04:56:01.595Z,5.47
2018-10-05T04:58:28.809Z,5.60
2018-10-05T05:00:55.947Z,4.80
2018-10-05T05:03:23.195Z,5.43
2018-10-05T05:05:50.414Z,5.20
2018-10-05T05:08:17.620Z,4.93
2018-10-05T05:10:44.852Z,4.90
2018-10-05T05:13:12.109Z,4.97
2018-10-05T05:15:39.313Z,4.93
2018-10-05T05:18:06.512Z,4.83
2018-10-05T05:20:33.768Z,5.13
2018-10-05T05:23:01.507Z,5.87
2018-10-05T05:25:28.742Z,6.50
2018-10-05T05:27:56.037Z,6.50
2018-10-05T05:30:23.245Z,5.33
2018-10-05T05:32:50.436Z,5.10
2018-10-05T05:35:17.662Z,5.57
2018-10-05T05:37:44.870Z,5.90
2018-10-05T05:40:12.177Z,6.10
2018-10-05T05:42:39.359Z,5.93
2018-10-05T05:45:07.291Z,7.27
2018-10-05T05:47:34.548Z,5.50
2018-10-05T05:50:01.823Z,5.60
2018-10-05T05:52:29.056Z,5.67
2018-10-05T05:54:56.331Z,5.77
2018-10-05T05:57:23.615Z,5.67
2018-10-05T05:59:51.222Z,6.50
2018-10-05T06:02:18.434Z,5.13
2018-10-05T06:04:45.773Z,5.80
2018-10-05T06:07:12.974Z,5.90
2018-10-05T06:09:40.352Z,5.90
2018-10-05T06:12:07.561Z,5.83
2018-10-05T06:14:34.969Z,5.57
2018-10-05T06:17:02.211Z,5.77
2018-10-05T06:19:29.775Z,5.20
2018-10-05T06:21:57.179Z,5.93
2018-10-05T06:24:24.280Z,5.67
2018-10-05T06:26:52.161Z,5.07
2018-10-05T06:29:19.467Z,5.43
2018-10-05T06:31:46.981Z,6.30
2018-10-05T06:34:14.210Z,5.47
2018-10-05T06:36:41.463Z,6.20
2018-10-05T06:39:09.989Z,6.53
2018-10-05T06:41:37.402Z,5.20
2018-10-05T06:44:04.757Z,5.33
2018-10-05T06:46:32.117Z,4.90
2018-10-05T06:48:59.405Z,5.30
2018-10-05T06:51:26.702Z,6.60
2018-10-05T06:53:57.738Z,5.00
2018-10-05T06:56:25.116Z,5.20
2018-10-05T06:58:52.450Z,5.43
2018-10-05T07:01:20.057Z,5.60
2018-10-05T07:03:47.455Z,6.20
2018-10-05T07:06:14.708Z,6.10
2018-10-05T07:08:41.963Z,6.60
2018-10-05T07:11:09.421Z,8.70
2018-10-05T07:13:37.842Z,7.70
2018-10-05T07:16:05.053Z,6.63
2018-10-05T07:18:32.515Z,5.70
2018-10-05T07:20:59.755Z,6.17
2018-10-05T07:23:27.110Z,6.80
2018-10-05T07:25:54.374Z,6.37
2018-10-05T07:28:21.729Z,6.30
2018-10-05T07:30:49.595Z,5.40
2018-10-05T07:33:16.883Z,6.20
2018-10-05T07:35:44.042Z,6.40
2018-10-05T07:38:11.355Z,6.90
2018-10-05T07:40:38.597Z,7.03
2018-10-05T07:43:06.126Z,6.30
2018-10-05T07:45:33.320Z,6.60
2018-10-05T07:48:00.612Z,6.30
2018-10-05T07:50:27.830Z,8.93
2018-10-05T07:52:55.225Z,6.30
2018-10-05T07:55:22.526Z,7.80
2018-10-05T07:57:49.728Z,6.73
2018-10-05T08:00:16.938Z,7.67
2018-10-05T08:02:44.830Z,7.30
2018-10-05T08:05:12.098Z,7.20
2018-10-05T08:07:39.455Z,7.40
2018-10-05T08:10:06.858Z,6.50
2018-10-05T08:12:34.200Z,6.63
2018-10-05T08:15:01.434Z,6.17
2018-10-05T08:17:28.635Z,6.23
2018-10-05T08:19:56.432Z,6.23
2018-10-05T08:22:24.251Z,7.20
2018-10-05T08:24:51.504Z,7.80
2018-10-05T08:27:18.800Z,6.40
2018-10-05T08:29:46.326Z,7.00
2018-10-05T08:32:13.635Z,7.63
2018-10-05T08:34:40.864Z,8.27
2018-10-05T08:37:08.170Z,8.30
2018-10-05T08:39:35.529Z,7.43
2018-10-05T08:42:02.784Z,7.40
2018-10-05T08:44:30.115Z,7.60
2018-10-05T08:46:57.592Z,7.97
2018-10-05T08:49:24.794Z,7.20
2018-10-05T08:51:52.052Z,9.20
2018-10-05T08:54:19.776Z,8.60
2018-10-05T08:56:47.161Z,7.80
2018-10-05T08:59:14.314Z,8.17
2018-10-05T09:01:41.614Z,6.30
2018-10-05T09:04:08.818Z,6.50
2018-10-05T09:06:36.032Z,6.30
2018-10-05T09:09:04.605Z,6.63
2018-10-05T09:11:31.903Z,6.90
2018-10-05T09:13:59.153Z,6.80
2018-10-05T09:16:26.481Z,6.50
2018-10-05T09:18:53.765Z,6.83
2018-10-05T09:21:21.014Z,6.67
2018-10-05T09:23:48.309Z,6.63
2018-10-05T09:26:15.678Z,7.77
2018-10-05T09:28:42.933Z,6.40
2018-10-05T09:31:10.275Z,7.00
2018-10-05T09:33:37.721Z,7.40
2018-10-05T09:36:04.978Z,6.20
2018-10-05T09:38:32.299Z,5.77
2018-10-05T09:40:59.542Z,6.40
2018-10-05T09:43:26.839Z,7.30
2018-10-05T09:45:54.166Z,6.00
2018-10-05T09:48:21.646Z,5.77
2018-10-05T09:50:51.024Z,6.17
2018-10-05T09:53:18.451Z,5.47
2018-10-05T09:55:45.690Z,6.67
2018-10-05T09:58:13.046Z,6.17
2018-10-05T10:00:46.226Z,5.70
2018-10-05T10:03:19.548Z,5.70
2018-10-05T10:05:47.025Z,5.57
2018-10-05T10:08:14.813Z,6.40
2018-10-05T10:10:42.099Z,4.90
2018-10-05T10:13:09.918Z,5.30
2018-10-05T10:15:37.339Z,5.23
2018-10-05T10:18:05.327Z,4.60
2018-10-05T10:20:32.489Z,4.30
2018-10-05T10:22:59.746Z,4.70
2018-10-05T10:25:27.074Z,3.73
2018-10-05T10:27:54.338Z,4.30
2018-10-05T10:30:21.562Z,4.80
2018-10-05T10:32:48.864Z,4.37
2018-10-05T10:35:16.314Z,4.77
2018-10-05T10:37:43.590Z,4.73
2018-10-05T10:40:11.155Z,5.80
2018-10-05T10:45:16.213Z,4.47
2018-10-05T10:47:43.765Z,4.60
2018-10-05T10:50:11.118Z,4.63
2018-10-05T10:52:38.372Z,5.10
2018-10-05T10:55:05.945Z,4.60
2018-10-05T10:57:33.309Z,5.00
2018-10-05T11:00:00.637Z,4.80
2018-10-05T11:02:27.946Z,4.30
2018-10-05T11:04:55.397Z,4.63
2018-10-05T11:07:22.794Z,4.03
2018-10-05T11:09:50.160Z,4.60
2018-10-05T11:12:17.516Z,6.37
2018-10-05T11:14:44.853Z,3.90
2018-10-05T11:17:12.213Z,4.10
2018-10-05T11:19:39.493Z,3.80
2018-10-05T11:22:06.793Z,4.00
2018-10-05T11:24:34.049Z,3.60
2018-10-05T11:27:01.496Z,4.37
2018-10-05T11:29:28.983Z,3.33
2018-10-05T11:31:56.421Z,3.60
2018-10-05T11:34:23.779Z,3.87
2018-10-05T11:36:51.162Z,3.50
2018-10-05T11:39:18.613Z,3.30
2018-10-05T11:41:45.883Z,3.63
2018-10-05T11:44:13.080Z,3.00
2018-10-05T11:46:40.480Z,3.23
2018-10-05T11:49:07.649Z,3.83
2018-10-05T11:51:34.977Z,3.37
2018-10-05T11:54:02.843Z,3.47
2018-10-05T11:56:30.548Z,3.67
2018-10-05T11:58:57.822Z,4.03
2018-10-05T12:01:25.223Z,3.57
2018-10-05T12:03:53.499Z,4.30
2018-10-05T12:06:20.781Z,4.13
2018-10-05T12:08:48.059Z,3.50
2018-10-05T12:11:15.312Z,3.43
2018-10-05T12:13:42.554Z,3.83
2018-10-05T12:16:09.753Z,4.43
2018-10-05T12:18:37.085Z,3.47
2018-10-05T12:21:04.303Z,3.17
2018-10-05T12:23:31.525Z,2.90
2018-10-05T12:25:58.739Z,3.47
2018-10-05T12:28:25.950Z,2.90
2018-10-05T12:30:53.136Z,3.20
2018-10-05T12:33:20.449Z,3.17
2018-10-05T12:35:47.673Z,3.17
2018-10-05T12:38:15.032Z,2.90
2018-10-05T12:40:42.258Z,3.23
2018-10-05T12:43:09.547Z,3.37
2018-10-05T12:45:36.857Z,3.70
2018-10-05T12:48:04.199Z,2.97
2018-10-05T12:50:33.549Z,3.00
2018-10-05T12:53:00.764Z,2.80
2018-10-05T12:55:27.982Z,3.77
2018-10-05T12:57:55.214Z,3.30
2018-10-05T13:00:22.503Z,4.10
2018-10-05T13:02:49.705Z,3.17
2018-10-05T13:05:17.166Z,3.20
2018-10-05T13:07:44.414Z,4.50
2018-10-05T13:10:11.634Z,3.73
2018-10-05T13:12:38.890Z,3.50
2018-10-05T13:15:06.363Z,3.10
2018-10-05T13:17:33.676Z,3.50
2018-10-05T13:20:01.293Z,3.37
2018-10-05T13:22:29.255Z,3.00
2018-10-05T13:24:56.695Z,2.90
2018-10-05T13:27:23.882Z,3.53
2018-10-05T13:29:51.124Z,3.50
2018-10-05T13:32:18.344Z,3.07
2018-10-05T13:34:45.608Z,3.00
2018-10-05T13:37:12.828Z,3.53
2018-10-05T13:39:40.125Z,3.50
2018-10-05T13:42:07.801Z,3.33
2018-10-05T13:44:35.143Z,3.23
2018-10-05T13:47:02.349Z,3.30
2018-10-05T13:49:29.562Z,3.77
2018-10-05T13:51:56.770Z,4.10
2018-10-05T13:54:23.914Z,4.10
2018-10-05T13:56:51.134Z,4.30
2018-10-05T13:59:18.270Z,4.53
2018-10-05T14:01:45.553Z,3.43
2018-10-05T14:04:12.810Z,4.07
2018-10-05T14:06:40.121Z,3.70
2018-10-05T14:09:09.467Z,3.40
2018-10-05T14:11:36.758Z,3.70
2018-10-05T14:14:04.225Z,3.30
2018-10-05T14:16:31.508Z,3.30
2018-10-05T14:18:59.212Z,3.57
2018-10-05T14:21:26.697Z,3.60
2018-10-05T14:23:53.914Z,3.60
2018-10-05T14:26:21.171Z,3.90
2018-10-05T14:28:48.713Z,3.93
2018-10-05T14:31:15.975Z,3.40
2018-10-05T14:33:43.283Z,3.90
2018-10-05T14:36:10.520Z,6.87
2018-10-05T14:38:38.193Z,3.73
2018-10-05T14:41:05.555Z,3.60
2018-10-05T14:43:33.056Z,4.27
2018-10-05T14:46:00.431Z,3.23
2018-10-05T14:48:27.696Z,3.50
2018-10-05T14:50:55.015Z,5.00
2018-10-05T14:53:22.409Z,6.10
2018-10-05T14:55:49.720Z,3.90
2018-10-05T14:58:16.923Z,3.97
2018-10-05T15:00:44.108Z,4.07
2018-10-05T15:03:11.381Z,4.10
2018-10-05T15:05:38.728Z,4.60
2018-10-05T15:08:06.052Z,4.20
2018-10-05T15:10:33.313Z,3.80
2018-10-05T15:13:00.555Z,5.10
2018-10-05T15:15:27.717Z,4.40
2018-10-05T15:17:54.888Z,4.87
2018-10-05T15:20:23.534Z,8.33
2018-10-05T15:22:51.262Z,4.10
2018-10-05T15:25:18.525Z,4.10
2018-10-05T15:27:45.806Z,3.80
2018-10-05T15:30:13.231Z,4.93
2018-10-05T15:32:40.524Z,5.87
2018-10-05T15:35:07.939Z,4.77
2018-10-05T15:37:35.180Z,3.90
2018-10-05T15:40:02.463Z,4.30
2018-10-05T15:42:30.115Z,4.20
2018-10-05T15:44:57.580Z,4.67
2018-10-05T15:47:25.926Z,3.97
2018-10-05T15:49:53.169Z,4.50
2018-10-05T15:52:20.465Z,4.10
2018-10-05T15:54:47.911Z,4.00
2018-10-05T15:57:15.218Z,3.60
2018-10-05T15:59:42.446Z,3.97
2018-10-05T16:02:09.798Z,3.70
2018-10-05T16:04:37.130Z,4.23
2018-10-05T16:07:04.353Z,4.00
2018-10-05T16:09:31.613Z,4.37
2018-10-05T16:11:58.845Z,3.90
2018-10-05T16:14:26.092Z,5.13
2018-10-05T16:16:53.413Z,4.23
2018-10-05T16:19:20.587Z,3.90
2018-10-05T16:21:47.815Z,3.97
2018-10-05T16:24:24.960Z,4.57
2018-10-05T16:26:53.148Z,4.40
2018-10-05T16:29:20.435Z,4.30
2018-10-05T16:31:47.649Z,4.30
2018-10-05T16:34:14.913Z,4.20
2018-10-05T16:36:42.161Z,4.23
2018-10-05T16:39:10.912Z,4.13
2018-10-05T16:41:38.102Z,4.10
2018-10-05T16:44:05.249Z,4.03
2018-10-05T16:46:32.528Z,4.40
2018-10-05T16:48:59.762Z,3.90
2018-10-05T16:51:27.099Z,4.40
2018-10-05T16:53:54.315Z,4.43
2018-10-05T16:56:21.519Z,5.10
2018-10-05T16:58:48.719Z,4.50
2018-10-05T17:01:15.874Z,5.50
2018-10-05T17:03:43.374Z,5.33
2018-10-05T17:06:10.579Z,5.13
2018-10-05T17:08:40.745Z,5.13
2018-10-05T17:11:07.941Z,5.20
2018-10-05T17:13:35.146Z,5.27
2018-10-05T17:16:02.359Z,5.10
2018-10-05T17:18:29.547Z,5.83
2018-10-05T17:20:56.706Z,6.50
2018-10-05T17:23:23.975Z,7.30
2018-10-05T17:25:51.225Z,6.50
2018-10-05T17:28:18.413Z,6.83
2018-10-05T17:30:45.651Z,6.80
2018-10-05T17:33:12.906Z,7.00
2018-10-05T17:35:40.105Z,6.57
2018-10-05T17:38:07.464Z,7.10
2018-10-05T17:40:34.713Z,6.53
2018-10-05T17:43:01.865Z,6.60
2018-10-05T17:45:29.218Z,6.80
2018-10-05T17:47:56.642Z,5.70
2018-10-05T17:50:23.854Z,6.33
2018-10-05T17:52:51.278Z,6.40
2018-10-05T17:55:18.630Z,7.50
2018-10-05T17:57:45.890Z,6.60
2018-10-05T18:00:13.143Z,6.70
2018-10-05T18:02:40.426Z,6.50
2018-10-05T18:05:07.657Z,5.50
2018-10-05T18:07:34.900Z,5.87
2018-10-05T18:10:02.156Z,5.90
2018-10-05T18:12:29.354Z,5.70
2018-10-05T18:14:56.681Z,5.10
2018-10-05T18:17:23.764Z,6.63
2018-10-05T18:19:50.971Z,5.60
2018-10-05T18:22:18.229Z,6.57
2018-10-05T18:24:45.532Z,5.80
2018-10-05T18:27:12.759Z,6.00
2018-10-05T18:29:39.942Z,6.40
2018-10-05T18:32:07.144Z,13.13
2018-10-05T18:34:34.414Z,6.60
2018-10-05T18:37:01.665Z,6.80
2018-10-05T18:39:28.872Z,7.10
2018-10-05T18:41:56.322Z,7.40
2018-10-05T18:44:23.566Z,6.87
2018-10-05T18:46:50.804Z,6.60
2018-10-05T18:49:18.169Z,6.40
2018-10-05T18:51:45.412Z,7.03
2018-10-05T18:54:12.573Z,6.70
2018-10-05T18:56:51.113Z,6.27
2018-10-05T18:59:18.296Z,7.00
2018-10-05T19:01:45.490Z,6.83
2018-10-05T19:04:12.731Z,6.10
2018-10-05T19:06:40.395Z,6.03
2018-10-05T19:09:07.600Z,6.40
2018-10-05T19:11:35.524Z,6.50
2018-10-05T19:14:02.904Z,6.43
2018-10-05T19:16:30.072Z,6.93
2018-10-05T19:18:57.414Z,7.20
2018-10-05T19:21:24.596Z,7.63
2018-10-05T19:23:51.895Z,7.57
2018-10-05T19:26:19.138Z,6.80
2018-10-05T19:28:46.316Z,7.43
2018-10-05T19:31:13.566Z,7.40
2018-10-05T19:33:41.783Z,8.53
2018-10-05T19:36:08.954Z,7.80
2018-10-05T19:38:36.245Z,7.30
2018-10-05T19:41:03.473Z,7.70
2018-10-05T19:43:30.750Z,8.20
2018-10-05T19:45:57.998Z,7.70
2018-10-05T19:48:25.314Z,7.83
2018-10-05T19:50:52.635Z,7.20
2018-10-05T19:53:20.075Z,7.33
2018-10-05T19:55:47.286Z,7.47
2018-10-05T19:58:14.515Z,8.67
2018-10-05T20:00:41.897Z,8.60
2018-10-05T20:03:09.220Z,7.30
2018-10-05T20:05:36.658Z,7.13
2018-10-05T20:08:03.924Z,7.27
2018-10-05T20:10:31.571Z,7.17
2018-10-05T20:12:58.854Z,7.37
2018-10-05T20:15:26.549Z,7.07
2018-10-05T20:17:53.984Z,7.40
2018-10-05T20:20:21.163Z,7.20
2018-10-05T20:22:48.574Z,6.30
2018-10-05T20:25:15.794Z,6.30
2018-10-05T20:27:43.187Z,7.10
2018-10-05T20:30:10.465Z,7.60
2018-10-05T20:32:37.788Z,6.80
2018-10-05T20:35:04.994Z,7.27
2018-10-05T20:37:32.472Z,7.13
2018-10-05T20:39:59.523Z,6.73
2018-10-05T20:42:26.784Z,6.70
2018-10-05T20:44:54.074Z,6.07
2018-10-05T20:47:21.330Z,6.37
2018-10-05T20:49:48.478Z,6.60
2018-10-05T20:52:15.962Z,6.70
2018-10-05T20:54:43.652Z,7.63
2018-10-05T20:57:10.972Z,7.00
2018-10-05T20:59:38.238Z,6.80
2018-10-05T21:02:05.415Z,7.40
2018-10-05T21:04:32.654Z,6.97
2018-10-05T21:06:59.967Z,5.97
2018-10-05T21:09:27.218Z,7.20
2018-10-05T21:11:54.595Z,6.60
2018-10-05T21:14:21.754Z,7.10
2018-10-05T21:16:48.971Z,6.80
2018-10-05T21:19:16.263Z,6.67
2018-10-05T21:21:43.507Z,6.80
2018-10-05T21:24:10.745Z,7.43
2018-10-05T21:26:38.005Z,6.17
2018-10-05T21:29:05.719Z,7.10
2018-10-05T21:31:32.915Z,6.93
2018-10-05T21:34:00.133Z,7.23
2018-10-05T21:36:27.270Z,6.73
2018-10-05T21:38:54.561Z,6.43
2018-10-05T21:41:21.738Z,7.17
2018-10-05T21:43:48.895Z,6.43
2018-10-05T21:46:16.664Z,5.80
2018-10-05T21:48:43.860Z,6.87
2018-10-05T21:51:11.047Z,6.13
2018-10-05T21:53:38.373Z,6.70
2018-10-05T21:56:05.763Z,6.53
2018-10-05T21:58:33.028Z,6.63
2018-10-05T22:01:00.311Z,6.30
2018-10-05T22:03:29.743Z,6.00
2018-10-05T22:05:56.991Z,7.20
2018-10-05T22:08:24.212Z,9.80
2018-10-05T22:10:51.425Z,7.30
2018-10-05T22:13:18.634Z,7.23
2018-10-05T22:15:46.020Z,6.77
2018-10-05T22:18:13.262Z,6.10
2018-10-05T22:20:40.475Z,6.50
2018-10-05T22:23:07.686Z,6.40
2018-10-05T22:25:34.978Z,6.60
2018-10-05T22:28:02.130Z,6.80
2018-10-05T22:30:29.375Z,6.70
2018-10-05T22:32:56.566Z,6.27
2018-10-05T22:35:23.868Z,6.87
2018-10-05T22:37:51.144Z,6.77
2018-10-05T22:40:18.697Z,6.50
2018-10-05T22:42:46.051Z,6.37
2018-10-05T22:45:13.266Z,5.83
2018-10-05T22:47:40.447Z,6.10
2018-10-05T22:50:07.746Z,7.20
2018-10-05T22:52:34.990Z,6.40
2018-10-05T22:55:02.228Z,6.33
2018-10-05T22:57:29.498Z,10.40
2018-10-05T22:59:56.643Z,6.33
2018-10-05T23:02:23.823Z,6.73
2018-10-05T23:04:51.027Z,6.17
2018-10-05T23:07:18.270Z,6.80
2018-10-05T23:09:45.440Z,6.47
2018-10-05T23:12:12.726Z,7.20
2018-10-05T23:14:39.908Z,6.47
2018-10-05T23:17:07.225Z,6.70
2018-10-05T23:19:34.607Z,6.07
2018-10-05T23:22:01.870Z,6.50
2018-10-05T23:24:29.240Z,5.87
2018-10-05T23:26:56.468Z,6.07
2018-10-05T23:29:23.682Z,6.80
2018-10-05T23:31:50.932Z,6.83
2018-10-05T23:34:18.537Z,6.23
2018-10-05T23:36:45.719Z,6.50
2018-10-05T23:39:12.838Z,7.80
2018-10-05T23:41:40.019Z,6.17
2018-10-05T23:44:07.354Z,5.93
2018-10-05T23:46:34.610Z,6.20
2018-10-05T23:49:01.834Z,6.30
2018-10-05T23:51:29.053Z,6.10
2018-10-05T23:53:56.223Z,6.50
2018-10-05T23:56:23.618Z,6.07
2018-10-05T23:58:50.821Z,6.70
